Time;durP1;ratioP1;P1;durP2;ratioP2;P2;SDS_P1;SDS_P2;PMS_P1;PMS_P2;Temp;Humidity;BMP_temperature;BMP_pressure;BME280_temperature;BME280_humidity;BME280_pressure;Samples;Min_cycle;Max_cycle;Signal;HPM_P1;HPM_P2
2022/03/29 00:02:03;;;;;;;2.85;1.30;;;21.30;99.90;;;;;;5061418;28;20225;-78
2022/03/29 00:04:36;;;;;;;0.90;0.70;;;21.40;99.90;;;;;;5069516;28;20232;-77
2022/03/29 00:07:07;;;;;;;1.17;0.70;;;21.40;99.90;;;;;;5068441;28;20706;-78
2022/03/29 00:09:38;;;;;;;1.95;0.95;;;21.40;99.90;;;;;;5067684;28;20224;-77
2022/03/29 00:12:09;;;;;;;2.03;1.08;;;21.30;99.90;;;;;;5067187;28;20219;-76
2022/03/29 00:14:39;;;;;;;4.57;1.70;;;21.40;99.90;;;;;;5062077;28;20219;-76
2022/03/29 00:17:10;;;;;;;2.90;1.35;;;21.30;99.90;;;;;;5061495;28;20219;-76
2022/03/29 00:19:42;;;;;;;3.33;1.30;;;21.40;99.90;;;;;;5068606;28;20214;-76
2022/03/29 00:22:13;;;;;;;3.90;1.27;;;21.40;99.90;;;;;;5066485;28;20693;-75
2022/03/29 00:24:44;;;;;;;3.35;2.30;;;21.40;99.90;;;;;;5059210;28;20227;-76
2022/03/29 00:27:15;;;;;;;4.78;2.00;;;21.40;99.90;;;;;;5065782;28;20363;-77
2022/03/29 00:29:45;;;;;;;5.10;2.13;;;21.40;99.90;;;;;;5068095;28;20222;-76
2022/03/29 00:32:16;;;;;;;3.60;1.70;;;21.40;99.90;;;;;;5069753;28;20211;-76
2022/03/29 00:34:48;;;;;;;3.90;1.98;;;21.40;99.90;;;;;;5063867;28;20223;-76
2022/03/29 00:37:19;;;;;;;2.90;1.77;;;21.40;99.90;;;;;;5062992;28;20234;-77
2022/03/29 00:39:50;;;;;;;3.40;1.40;;;21.40;99.90;;;;;;5064632;28;20227;-76
2022/03/29 00:42:20;;;;;;;4.70;1.40;;;21.40;99.90;;;;;;5069016;28;20204;-76
2022/03/29 00:44:51;;;;;;;8.13;2.30;;;21.40;99.90;;;;;;5067827;28;20234;-76
2022/03/29 00:47:22;;;;;;;3.10;1.60;;;21.40;99.90;;;;;;5068118;28;20199;-77
2022/03/29 00:49:54;;;;;;;3.25;1.77;;;21.40;99.90;;;;;;5066979;28;20219;-77
2022/03/29 00:52:26;;;;;;;6.35;2.20;;;21.40;99.90;;;;;;5070634;28;20226;-77
2022/03/29 00:54:56;;;;;;;2.72;1.23;;;21.40;99.90;;;;;;5069026;28;20203;-78
2022/03/29 00:57:28;;;;;;;4.30;1.73;;;21.40;99.90;;;;;;5071157;28;20222;-77
2022/03/29 00:59:59;;;;;;;2.58;1.30;;;21.40;99.90;;;;;;5066605;28;20616;-78
2022/03/29 01:02:29;;;;;;;2.15;1.10;;;21.50;99.90;;;;;;5068022;28;20312;-78
2022/03/29 01:05:03;;;;;;;2.33;1.20;;;21.50;99.90;;;;;;5069059;28;20284;-77
2022/03/29 01:07:33;;;;;;;3.00;1.02;;;21.50;99.90;;;;;;5067756;28;20249;-78
2022/03/29 01:10:06;;;;;;;2.58;1.17;;;21.50;99.90;;;;;;5068789;28;20199;-78
2022/03/29 01:12:37;;;;;;;3.30;1.65;;;21.50;99.90;;;;;;5065416;28;20351;-78
2022/03/29 01:15:12;;;;;;;2.58;1.20;;;21.50;99.90;;;;;;5065668;28;20224;-77
2022/03/29 01:17:43;;;;;;;1.98;1.20;;;21.50;99.90;;;;;;5057005;28;20222;-78
2022/03/29 01:20:19;;;;;;;1.92;1.00;;;21.50;99.90;;;;;;5065843;28;20229;-78
2022/03/29 01:22:53;;;;;;;1.80;1.40;;;21.50;99.90;;;;;;5060319;28;20222;-78
2022/03/29 01:25:26;;;;;;;2.65;1.10;;;21.50;99.90;;;;;;5060994;28;20237;-77
2022/03/29 01:27:58;;;;;;;1.42;1.00;;;21.60;99.90;;;;;;5060818;28;20227;-78
2022/03/29 01:30:30;;;;;;;1.65;0.90;;;21.60;99.90;;;;;;5061702;28;20238;-77
2022/03/29 01:33:03;;;;;;;1.73;1.00;;;21.60;99.90;;;;;;5058447;28;20219;-76
2022/03/29 01:35:35;;;;;;;1.13;0.60;;;21.70;99.90;;;;;;5063725;28;20590;-77
2022/03/29 01:38:08;;;;;;;1.58;0.80;;;21.70;99.90;;;;;;5065038;28;20219;-77
2022/03/29 01:40:38;;;;;;;1.50;0.88;;;21.80;99.90;;;;;;5059542;28;20251;-77
2022/03/29 01:43:13;;;;;;;1.05;0.80;;;21.80;99.90;;;;;;5063006;28;22114;-77
2022/03/29 01:45:44;;;;;;;3.45;1.02;;;21.80;99.90;;;;;;5063174;28;20352;-77
2022/03/29 01:48:15;;;;;;;1.88;0.70;;;21.80;99.90;;;;;;5064653;28;20227;-78
2022/03/29 01:50:46;;;;;;;1.70;0.82;;;21.80;99.90;;;;;;5066531;28;20227;-77
2022/03/29 01:53:27;;;;;;;2.08;0.70;;;21.70;99.90;;;;;;5061033;28;20231;-77
2022/03/29 01:55:59;;;;;;;1.55;1.00;;;21.80;99.90;;;;;;5062982;28;20215;-77
2022/03/29 01:58:31;;;;;;;2.13;0.60;;;21.90;99.90;;;;;;5063669;28;20232;-77
2022/03/29 02:01:02;;;;;;;2.10;0.90;;;21.90;99.90;;;;;;5067669;28;20222;-77
2022/03/29 02:03:33;;;;;;;3.58;0.90;;;22.00;99.90;;;;;;5085354;28;20716;-77
2022/03/29 02:06:04;;;;;;;2.00;1.10;;;22.10;99.90;;;;;;5087134;28;20697;-77
2022/03/29 02:08:37;;;;;;;2.38;1.10;;;22.20;99.90;;;;;;5084642;28;20215;-78
2022/03/29 02:11:08;;;;;;;2.00;1.10;;;22.10;99.90;;;;;;5065557;28;20268;-77
2022/03/29 02:13:40;;;;;;;2.72;1.08;;;22.20;99.90;;;;;;5064368;28;20261;-78
2022/03/29 02:16:10;;;;;;;2.00;1.02;;;22.30;99.90;;;;;;5062002;28;20219;-78
2022/03/29 02:18:41;;;;;;;1.80;0.90;;;22.30;99.90;;;;;;5065732;28;20211;-77
2022/03/29 02:21:11;;;;;;;2.33;1.30;;;22.40;99.90;;;;;;5074784;28;20219;-76
2022/03/29 02:23:44;;;;;;;2.33;1.20;;;22.40;99.90;;;;;;5079995;28;20219;-77
2022/03/29 02:26:15;;;;;;;1.67;0.90;;;22.40;99.90;;;;;;5086602;28;20184;-77
2022/03/29 02:28:45;;;;;;;3.55;0.93;;;22.50;99.90;;;;;;5089091;28;20233;-77
2022/03/29 02:31:17;;;;;;;1.85;1.20;;;22.60;99.90;;;;;;5085497;28;20211;-77
2022/03/29 02:33:48;;;;;;;1.42;0.98;;;22.70;99.90;;;;;;5078550;28;23186;-76
2022/03/29 02:36:19;;;;;;;1.20;0.80;;;22.70;99.90;;;;;;5080174;28;20219;-76
2022/03/29 02:38:51;;;;;;;1.67;0.98;;;22.70;99.90;;;;;;5077675;28;20281;-78
2022/03/29 02:41:22;;;;;;;1.50;1.00;;;22.70;99.90;;;;;;5078831;28;20887;-77
2022/03/29 02:43:53;;;;;;;2.45;1.20;;;22.70;99.90;;;;;;5088298;28;20268;-77
2022/03/29 02:46:25;;;;;;;1.58;1.02;;;22.70;99.90;;;;;;5086942;28;20298;-79
2022/03/29 02:48:56;;;;;;;2.70;1.02;;;22.80;99.90;;;;;;5082066;28;20269;-79
2022/03/29 02:51:27;;;;;;;2.03;0.90;;;22.80;99.90;;;;;;5078387;28;20223;-80
2022/03/29 02:53:59;;;;;;;2.30;1.20;;;22.90;99.90;;;;;;5085607;28;20195;-79
2022/03/29 02:56:30;;;;;;;1.90;0.98;;;22.90;99.90;;;;;;5088418;28;20197;-79
2022/03/29 02:59:01;;;;;;;1.33;1.00;;;23.00;99.90;;;;;;5091876;28;20223;-79
2022/03/29 03:01:32;;;;;;;1.85;1.08;;;23.10;99.90;;;;;;5093053;28;20207;-79
2022/03/29 03:04:02;;;;;;;2.80;1.23;;;23.10;99.90;;;;;;5085189;28;20271;-79
2022/03/29 03:06:33;;;;;;;1.33;0.95;;;23.20;99.90;;;;;;5093225;28;20199;-79
2022/03/29 03:09:05;;;;;;;1.92;1.17;;;23.10;99.90;;;;;;5091572;28;20695;-79
2022/03/29 03:11:37;;;;;;;1.20;0.80;;;23.20;99.90;;;;;;5092801;28;20199;-79
2022/03/29 03:14:07;;;;;;;3.15;0.80;;;23.10;99.90;;;;;;5093137;28;20235;-79
2022/03/29 03:16:38;;;;;;;4.25;0.90;;;23.10;99.90;;;;;;5093158;28;20192;-79
2022/03/29 03:19:09;;;;;;;1.65;0.70;;;23.20;99.90;;;;;;5093326;28;20192;-79
2022/03/29 03:21:40;;;;;;;4.53;0.93;;;23.20;99.90;;;;;;5092876;28;20290;-79
2022/03/29 03:24:15;;;;;;;2.17;0.77;;;23.30;99.90;;;;;;5088137;28;20227;-79
2022/03/29 03:26:45;;;;;;;1.77;0.60;;;23.30;99.90;;;;;;5093016;28;20214;-79
2022/03/29 03:29:16;;;;;;;2.17;0.88;;;23.40;99.90;;;;;;5095431;28;20198;-78
2022/03/29 03:31:47;;;;;;;2.13;1.00;;;23.40;99.90;;;;;;5097310;28;20187;-79
2022/03/29 03:34:17;;;;;;;1.90;0.65;;;23.40;99.90;;;;;;5092406;28;20191;-79
2022/03/29 03:36:48;;;;;;;3.58;1.00;;;23.40;99.90;;;;;;5092596;28;20191;-78
2022/03/29 03:39:20;;;;;;;1.85;0.70;;;23.40;99.90;;;;;;5092364;28;20183;-78
2022/03/29 03:41:51;;;;;;;2.88;0.80;;;23.30;99.90;;;;;;5091784;28;20536;-79
2022/03/29 03:44:22;;;;;;;2.70;0.90;;;23.30;99.90;;;;;;5092437;28;20223;-79
2022/03/29 03:46:54;;;;;;;1.70;0.55;;;23.30;99.90;;;;;;5087204;28;20677;-79
2022/03/29 03:49:25;;;;;;;2.47;0.82;;;23.30;99.90;;;;;;5092059;28;20677;-79
2022/03/29 03:51:55;;;;;;;3.75;0.80;;;23.30;99.90;;;;;;5085469;28;20195;-79
2022/03/29 03:54:28;;;;;;;3.67;0.70;;;23.20;99.90;;;;;;5087871;28;20198;-79
2022/03/29 03:56:59;;;;;;;1.58;0.50;;;23.20;99.90;;;;;;5092033;28;20230;-78
2022/03/29 03:59:29;;;;;;;3.70;0.90;;;23.20;99.90;;;;;;5082623;28;20238;-78
2022/03/29 04:02:02;;;;;;;3.22;0.70;;;23.20;99.90;;;;;;5091660;28;20195;-79
2022/03/29 04:04:33;;;;;;;1.83;0.65;;;23.20;99.90;;;;;;5092198;28;20274;-79
2022/03/29 04:07:03;;;;;;;1.52;0.70;;;23.20;99.90;;;;;;5088629;28;20288;-80
2022/03/29 04:09:36;;;;;;;3.53;0.88;;;23.20;99.90;;;;;;5087114;28;20215;-81
2022/03/29 04:12:08;;;;;;;1.95;0.70;;;23.20;99.90;;;;;;5084924;28;20211;-80
2022/03/29 04:14:39;;;;;;;1.98;0.85;;;23.20;99.90;;;;;;5081402;28;20219;-80
2022/03/29 04:17:11;;;;;;;2.47;0.70;;;23.20;99.90;;;;;;5086986;28;20215;-80
2022/03/29 04:19:42;;;;;;;2.92;0.90;;;23.20;99.90;;;;;;5083471;28;20219;-80
2022/03/29 04:22:12;;;;;;;2.97;0.70;;;23.10;99.90;;;;;;5091030;28;20195;-81
2022/03/29 04:24:45;;;;;;;4.15;0.90;;;23.10;99.90;;;;;;5078822;28;20235;-81
2022/03/29 04:27:15;;;;;;;2.47;0.80;;;23.10;99.90;;;;;;5090849;28;20328;-80
2022/03/29 04:29:46;;;;;;;3.00;0.90;;;23.10;99.90;;;;;;5085161;28;20670;-80
2022/03/29 04:32:17;;;;;;;2.88;0.93;;;23.10;99.90;;;;;;5088036;28;20689;-81
2022/03/29 04:34:48;;;;;;;3.65;0.90;;;23.10;99.90;;;;;;5087610;28;20214;-81
2022/03/29 04:37:19;;;;;;;3.92;0.90;;;23.10;99.90;;;;;;5083379;28;20187;-80
2022/03/29 04:39:52;;;;;;;3.25;0.90;;;23.00;99.90;;;;;;5084994;28;20218;-81
2022/03/29 04:42:23;;;;;;;5.32;1.27;;;23.00;99.90;;;;;;5091871;28;20632;-79
2022/03/29 04:44:53;;;;;;;3.22;1.02;;;23.00;99.90;;;;;;5089825;28;20247;-79
2022/03/29 04:47:24;;;;;;;5.63;1.00;;;23.00;99.90;;;;;;5092572;28;20678;-80
2022/03/29 04:49:55;;;;;;;3.03;0.80;;;23.00;99.90;;;;;;5085756;28;20682;-79
2022/03/29 04:52:25;;;;;;;3.55;0.80;;;23.10;99.90;;;;;;5087941;28;20549;-78
2022/03/29 04:55:00;;;;;;;3.85;0.80;;;23.10;99.90;;;;;;5089687;28;20595;-77
2022/03/29 04:57:31;;;;;;;3.15;0.70;;;23.10;99.90;;;;;;5084333;28;20714;-80
2022/03/29 05:00:02;;;;;;;2.75;0.70;;;23.00;99.90;;;;;;5084072;28;20192;-78
2022/03/29 05:02:33;;;;;;;2.15;0.77;;;23.00;99.90;;;;;;5090366;28;20191;-79
2022/03/29 05:05:05;;;;;;;6.97;1.10;;;23.00;99.90;;;;;;5093745;28;20309;-78
2022/03/29 05:07:35;;;;;;;3.78;1.20;;;23.10;99.90;;;;;;5081148;28;20317;-78
2022/03/29 05:10:09;;;;;;;4.07;1.10;;;23.00;99.90;;;;;;5083413;28;20308;-78
2022/03/29 05:12:43;;;;;;;3.20;1.02;;;23.00;99.90;;;;;;5086581;28;20401;-79
2022/03/29 05:15:15;;;;;;;3.45;1.02;;;23.00;99.90;;;;;;5083868;28;20286;-78
2022/03/29 05:17:46;;;;;;;4.88;1.10;;;23.00;99.90;;;;;;5081070;28;20294;-79
2022/03/29 05:20:17;;;;;;;3.97;0.90;;;23.00;99.90;;;;;;5078941;28;20294;-79
2022/03/29 05:22:49;;;;;;;2.90;0.93;;;23.10;99.90;;;;;;5081878;28;20252;-78
2022/03/29 05:25:23;;;;;;;2.60;0.85;;;23.10;99.90;;;;;;5084504;28;20223;-78
2022/03/29 05:27:55;;;;;;;4.03;0.95;;;23.30;99.90;;;;;;5090278;28;20196;-79
2022/03/29 05:30:25;;;;;;;3.67;1.00;;;23.30;99.90;;;;;;5076731;28;20222;-80
2022/03/29 05:32:59;;;;;;;4.18;0.98;;;23.30;99.90;;;;;;5081495;28;20265;-80
2022/03/29 05:35:32;;;;;;;4.18;0.90;;;23.40;99.90;;;;;;5081629;28;20219;-78
2022/03/29 05:38:22;;;;;;;3.72;1.10;;;23.40;99.90;;;;;;5089828;28;20202;-79
2022/03/29 05:41:09;;;;;;;3.08;0.70;;;23.40;99.90;;;;;;5096591;28;20615;-80
2022/03/29 05:43:40;;;;;;;3.42;1.13;;;23.50;99.90;;;;;;5087846;28;20244;-80
2022/03/29 05:48:57;;;;;;;3.85;1.15;;;23.60;99.90;;;;;;5090357;28;20198;-77
2022/03/29 05:51:29;;;;;;;4.70;1.40;;;23.50;99.90;;;;;;5091303;28;20800;-79
2022/03/29 05:54:00;;;;;;;5.63;1.33;;;23.50;99.90;;;;;;5100066;28;20195;-78
2022/03/29 05:56:33;;;;;;;6.43;1.30;;;23.60;99.90;;;;;;5090123;28;20282;-80
2022/03/29 05:59:04;;;;;;;3.50;1.00;;;23.50;99.90;;;;;;5095503;28;20276;-78
2022/03/29 06:01:35;;;;;;;6.45;1.10;;;23.50;99.90;;;;;;5094919;28;20215;-78
2022/03/29 06:04:07;;;;;;;6.70;2.67;;;23.50;99.90;;;;;;5085530;28;20212;-78
2022/03/29 06:06:40;;;;;;;5.90;1.77;;;23.50;99.90;;;;;;5090137;28;20223;-78
2022/03/29 06:09:11;;;;;;;5.53;1.65;;;23.50;99.90;;;;;;5089591;28;20718;-78
2022/03/29 06:11:43;;;;;;;6.63;1.30;;;23.50;99.90;;;;;;5087140;28;20602;-79
2022/03/29 06:14:14;;;;;;;7.25;1.15;;;23.50;99.90;;;;;;5081865;28;20196;-79
2022/03/29 06:16:45;;;;;;;4.93;1.05;;;23.40;99.90;;;;;;5100808;28;20672;-78
2022/03/29 06:19:16;;;;;;;4.57;1.40;;;23.40;99.90;;;;;;5077502;28;20215;-78
2022/03/29 06:21:46;;;;;;;3.50;1.17;;;23.40;99.90;;;;;;5078569;28;20226;-80
2022/03/29 06:24:17;;;;;;;4.43;1.38;;;23.40;99.90;;;;;;5079096;28;20979;-78
2022/03/29 06:26:49;;;;;;;5.22;1.58;;;23.40;99.90;;;;;;5089696;28;20200;-78
2022/03/29 06:29:20;;;;;;;5.07;1.60;;;23.40;99.90;;;;;;5088476;28;20199;-79
2022/03/29 06:31:51;;;;;;;6.65;2.50;;;23.30;99.90;;;;;;5087617;28;20211;-78
2022/03/29 06:34:21;;;;;;;8.70;2.28;;;23.40;99.90;;;;;;5089564;28;20268;-78
2022/03/29 06:36:52;;;;;;;5.80;1.90;;;23.30;99.90;;;;;;5093658;28;20244;-78
2022/03/29 06:39:23;;;;;;;4.20;1.10;;;23.30;99.90;;;;;;5092534;28;20203;-79
2022/03/29 06:41:56;;;;;;;5.22;1.42;;;23.30;99.90;;;;;;5093243;28;20183;-79
2022/03/29 06:44:27;;;;;;;4.07;1.30;;;23.30;99.90;;;;;;5093243;28;20194;-80
2022/03/29 06:46:58;;;;;;;5.97;1.40;;;23.30;99.90;;;;;;5097991;28;20706;-80
2022/03/29 06:49:30;;;;;;;8.65;1.80;;;23.30;99.90;;;;;;5091649;28;20211;-79
2022/03/29 06:52:00;;;;;;;5.90;1.40;;;23.20;99.90;;;;;;5082050;28;20230;-80
2022/03/29 06:54:31;;;;;;;5.45;1.30;;;23.20;99.90;;;;;;5082442;28;20215;-80
2022/03/29 06:57:04;;;;;;;5.50;1.30;;;23.20;99.90;;;;;;5093924;28;20215;-79
2022/03/29 06:59:34;;;;;;;4.93;1.20;;;23.20;99.90;;;;;;5088824;28;20770;-80
2022/03/29 07:02:05;;;;;;;5.28;1.30;;;23.10;99.90;;;;;;5090834;28;20222;-80
2022/03/29 07:04:36;;;;;;;4.85;1.83;;;23.20;99.90;;;;;;5091252;28;20220;-79
2022/03/29 07:07:07;;;;;;;4.38;1.60;;;23.20;99.90;;;;;;5092487;28;20191;-80
2022/03/29 07:12:27;;;;;;;6.13;2.00;;;23.10;99.90;;;;;;5090810;28;20209;-80
2022/03/29 07:14:57;;;;;;;6.13;2.08;;;23.10;99.90;;;;;;5091774;28;20207;-80
2022/03/29 07:17:28;;;;;;;5.90;1.80;;;23.00;99.90;;;;;;5090175;28;20215;-80
2022/03/29 07:19:59;;;;;;;4.10;1.50;;;23.00;99.90;;;;;;5090397;28;20272;-80
2022/03/29 07:22:30;;;;;;;4.80;1.63;;;23.00;99.90;;;;;;5092574;28;20256;-80
2022/03/29 07:25:01;;;;;;;3.17;1.77;;;23.00;99.90;;;;;;5092675;28;20257;-80
2022/03/29 07:27:33;;;;;;;4.63;1.50;;;22.90;99.90;;;;;;5087724;28;20265;-79
2022/03/29 07:30:05;;;;;;;4.72;1.50;;;22.90;99.90;;;;;;5087413;28;20268;-80
2022/03/29 07:32:35;;;;;;;3.78;1.13;;;22.80;99.90;;;;;;5087761;28;20206;-77
2022/03/29 07:35:06;;;;;;;4.65;1.42;;;22.80;99.90;;;;;;5083238;28;20235;-78
2022/03/29 07:37:37;;;;;;;3.70;1.50;;;22.70;99.90;;;;;;5078941;28;20219;-78
2022/03/29 07:40:08;;;;;;;4.45;1.63;;;22.70;99.90;;;;;;5074895;28;20223;-78
2022/03/29 07:42:41;;;;;;;4.57;1.65;;;22.70;99.90;;;;;;5080191;28;20335;-78
2022/03/29 07:45:13;;;;;;;2.95;1.40;;;22.60;99.90;;;;;;5080015;28;20589;-78
2022/03/29 07:47:44;;;;;;;6.35;1.50;;;22.60;99.90;;;;;;5075300;28;20661;-78
2022/03/29 07:50:15;;;;;;;6.03;1.88;;;22.60;99.90;;;;;;5088914;28;20195;-77
2022/03/29 07:52:46;;;;;;;10.65;1.77;;;22.50;99.90;;;;;;5087852;28;20211;-77
2022/03/29 07:55:16;;;;;;;7.65;1.95;;;22.40;99.90;;;;;;5083272;28;20280;-78
2022/03/29 07:57:49;;;;;;;7.47;1.70;;;22.40;99.90;;;;;;5081996;28;20226;-78
2022/03/29 08:00:35;;;;;;;7.60;1.88;;;22.40;99.90;;;;;;5075709;28;20270;-78
2022/03/29 08:03:09;;;;;;;5.47;1.90;;;22.30;99.90;;;;;;5077666;28;20214;-77
2022/03/29 08:05:41;;;;;;;5.38;1.98;;;22.30;99.90;;;;;;5091327;28;20227;-78
2022/03/29 08:08:13;;;;;;;4.38;2.15;;;22.30;99.90;;;;;;5087154;28;20211;-78
2022/03/29 08:10:44;;;;;;;4.05;1.70;;;22.30;99.90;;;;;;5087299;28;20761;-78
2022/03/29 08:13:18;;;;;;;3.90;1.80;;;22.30;99.90;;;;;;5075468;28;20223;-78
2022/03/29 08:15:55;;;;;;;5.22;1.33;;;22.30;99.90;;;;;;5077506;28;20639;-77
2022/03/29 08:18:26;;;;;;;5.35;1.50;;;22.30;99.90;;;;;;5083798;28;20211;-78
2022/03/29 08:20:59;;;;;;;2.70;1.50;;;22.20;99.90;;;;;;5084333;28;20218;-78
2022/03/29 08:23:30;;;;;;;3.05;1.55;;;22.20;99.90;;;;;;5084638;28;20201;-78
2022/03/29 08:26:00;;;;;;;4.45;2.10;;;22.20;99.90;;;;;;5085652;28;20218;-78
2022/03/29 08:28:33;;;;;;;3.38;1.83;;;22.20;99.90;;;;;;5087377;28;20212;-78
2022/03/29 08:31:03;;;;;;;4.20;2.03;;;22.20;99.90;;;;;;5087266;28;20332;-78
2022/03/29 08:33:34;;;;;;;5.45;2.08;;;22.20;99.90;;;;;;5079536;28;20223;-78
2022/03/29 08:36:05;;;;;;;5.82;1.85;;;22.20;99.90;;;;;;5086292;28;20705;-78
2022/03/29 08:38:35;;;;;;;6.68;1.95;;;22.20;99.90;;;;;;5089958;28;20223;-78
2022/03/29 08:41:07;;;;;;;9.50;2.47;;;22.20;99.90;;;;;;5091107;28;20187;-78
2022/03/29 08:43:40;;;;;;;5.20;1.90;;;22.20;99.90;;;;;;5090186;28;20238;-78
2022/03/29 08:46:11;;;;;;;7.88;2.10;;;22.20;99.90;;;;;;5090779;28;20222;-78
2022/03/29 08:48:43;;;;;;;10.48;2.22;;;22.10;99.90;;;;;;5090018;28;20191;-78
2022/03/29 08:51:15;;;;;;;10.25;2.20;;;22.10;99.90;;;;;;5083743;28;20219;-78
2022/03/29 08:53:48;;;;;;;10.70;2.20;;;22.10;99.90;;;;;;5087377;28;20276;-78
2022/03/29 08:56:20;;;;;;;9.10;2.08;;;22.10;99.90;;;;;;5079123;28;20269;-77
2022/03/29 08:58:54;;;;;;;12.13;2.22;;;22.10;99.90;;;;;;5083920;28;20238;-76
2022/03/29 09:01:25;;;;;;;11.88;2.33;;;22.00;99.90;;;;;;5080806;28;20256;-76
2022/03/29 09:04:12;;;;;;;7.95;1.95;;;22.00;99.90;;;;;;5072198;28;20227;-74
2022/03/29 09:07:00;;;;;;;9.45;1.80;;;21.90;99.90;;;;;;5071430;28;20235;-75
2022/03/29 09:09:32;;;;;;;9.38;2.15;;;21.90;99.90;;;;;;5071501;28;20724;-74
2022/03/29 09:12:12;;;;;;;9.15;2.15;;;21.90;99.90;;;;;;5071743;28;20279;-76
2022/03/29 09:14:59;;;;;;;8.80;2.15;;;21.90;99.90;;;;;;5073488;28;20776;-75
2022/03/29 09:17:31;;;;;;;9.27;2.42;;;21.90;99.90;;;;;;5075521;28;20302;-75
2022/03/29 09:20:02;;;;;;;9.23;2.60;;;21.90;99.90;;;;;;5073083;28;20272;-75
2022/03/29 09:22:42;;;;;;;8.43;2.35;;;21.90;99.90;;;;;;5072771;28;20215;-75
2022/03/29 09:25:15;;;;;;;6.90;2.47;;;21.90;99.90;;;;;;5074267;28;20250;-74
2022/03/29 09:27:54;;;;;;;10.48;2.85;;;21.90;99.90;;;;;;5075264;28;20211;-74
2022/03/29 09:30:28;;;;;;;7.90;2.42;;;21.90;99.90;;;;;;5075779;28;20643;-75
2022/03/29 09:33:04;;;;;;;12.10;3.00;;;21.90;99.90;;;;;;5071666;28;20273;-74
2022/03/29 09:35:36;;;;;;;11.38;3.22;;;21.80;99.90;;;;;;5075060;28;21580;-72
2022/03/29 09:38:26;;;;;;;10.05;2.58;;;21.80;99.90;;;;;;5081647;28;20219;-71
2022/03/29 09:40:58;;;;;;;9.80;2.97;;;21.80;99.90;;;;;;5090118;28;20552;-72
2022/03/29 09:43:31;;;;;;;10.35;3.08;;;21.80;99.90;;;;;;5084035;28;20230;-72
2022/03/29 09:46:05;;;;;;;12.90;2.90;;;21.80;99.90;;;;;;5088604;28;20214;-73
2022/03/29 09:48:38;;;;;;;7.35;2.22;;;21.80;99.90;;;;;;5086700;28;20279;-72
2022/03/29 09:51:26;;;;;;;10.50;2.40;;;21.80;99.90;;;;;;5088827;28;20268;-72
2022/03/29 09:53:58;;;;;;;10.80;2.63;;;21.70;99.90;;;;;;5086317;28;20581;-75
2022/03/29 09:56:30;;;;;;;8.63;2.03;;;21.80;99.90;;;;;;5086636;28;20222;-75
2022/03/29 09:59:18;;;;;;;9.50;2.65;;;21.80;99.90;;;;;;5090905;28;20230;-72
2022/03/29 10:01:57;;;;;;;7.85;2.28;;;21.80;99.90;;;;;;5080741;28;20207;-73
2022/03/29 10:04:33;;;;;;;9.75;2.13;;;21.80;99.90;;;;;;5087633;28;20597;-73
2022/03/29 10:07:11;;;;;;;7.68;1.92;;;21.80;99.90;;;;;;5080674;28;20237;-74
2022/03/29 10:09:44;;;;;;;5.20;1.75;;;21.80;99.90;;;;;;5087046;28;20226;-72
2022/03/29 10:12:16;;;;;;;6.90;2.15;;;21.80;99.90;;;;;;5093350;28;20195;-73
2022/03/29 10:14:47;;;;;;;8.82;2.33;;;21.80;99.90;;;;;;5091022;28;20210;-74
2022/03/29 10:17:20;;;;;;;5.95;1.77;;;21.80;99.90;;;;;;5088464;28;20270;-74
2022/03/29 10:19:51;;;;;;;6.70;1.90;;;21.80;99.90;;;;;;5082750;28;20207;-74
2022/03/29 10:22:22;;;;;;;6.25;1.92;;;21.70;99.90;;;;;;5081992;28;20778;-73
2022/03/29 10:24:53;;;;;;;6.03;1.90;;;21.80;99.90;;;;;;5082689;28;20214;-73
2022/03/29 10:27:25;;;;;;;6.28;1.45;;;21.80;99.90;;;;;;5077656;28;20226;-73
2022/03/29 10:29:56;;;;;;;5.72;1.52;;;21.80;99.90;;;;;;5081627;28;20216;-72
2022/03/29 10:32:37;;;;;;;4.97;1.58;;;21.70;99.90;;;;;;5082243;28;20310;-72
2022/03/29 10:35:12;;;;;;;6.45;1.65;;;21.80;99.90;;;;;;5083924;28;20322;-72
2022/03/29 10:37:56;;;;;;;8.55;1.70;;;21.80;99.90;;;;;;5083676;28;20233;-72
2022/03/29 10:40:42;;;;;;;4.85;1.90;;;21.80;99.90;;;;;;5073380;28;20598;-72
2022/03/29 10:43:34;;;;;;;5.88;1.90;;;21.80;99.90;;;;;;5078558;28;20269;-72
2022/03/29 10:46:25;;;;;;;6.55;1.65;;;21.80;99.90;;;;;;5078217;28;20227;-72
2022/03/29 10:49:27;;;;;;;7.82;1.58;;;21.80;99.90;;;;;;5084619;28;20210;-72
2022/03/29 10:51:59;;;;;;;5.03;1.65;;;21.80;99.90;;;;;;5090626;28;20301;-74
2022/03/29 10:54:36;;;;;;;4.82;1.50;;;21.80;99.90;;;;;;5091074;28;20222;-74
2022/03/29 10:57:08;;;;;;;5.38;1.60;;;21.80;99.90;;;;;;5082267;28;20210;-74
2022/03/29 10:59:40;;;;;;;6.57;1.75;;;21.80;99.90;;;;;;5086727;28;20219;-74
2022/03/29 11:02:16;;;;;;;9.85;1.67;;;21.80;99.90;;;;;;5091324;28;20218;-74
2022/03/29 11:05:09;;;;;;;13.00;3.17;;;21.80;99.90;;;;;;5086632;28;20537;-74
2022/03/29 11:07:41;;;;;;;8.82;2.60;;;21.80;99.90;;;;;;5084499;28;20228;-75
2022/03/29 11:10:15;;;;;;;11.80;3.35;;;21.80;99.90;;;;;;5085635;28;20211;-74
2022/03/29 11:12:49;;;;;;;8.30;2.53;;;21.80;99.90;;;;;;5083102;28;20219;-74
2022/03/29 11:15:49;;;;;;;8.45;2.95;;;21.80;99.90;;;;;;5085132;28;20215;-73
2022/03/29 11:18:52;;;;;;;9.32;2.80;;;21.60;99.90;;;;;;5086122;28;20720;-73
2022/03/29 11:21:42;;;;;;;6.32;2.30;;;21.60;99.90;;;;;;5089290;28;20242;-73
2022/03/29 11:24:17;;;;;;;5.47;1.67;;;21.50;99.90;;;;;;5087377;28;20293;-73
2022/03/29 11:27:00;;;;;;;5.88;1.90;;;21.50;99.90;;;;;;5089188;28;20229;-73
2022/03/29 11:29:32;;;;;;;5.53;1.65;;;21.40;99.90;;;;;;5085240;28;20214;-73
2022/03/29 11:32:04;;;;;;;3.10;1.50;;;21.40;99.90;;;;;;5093229;28;20192;-73
2022/03/29 11:34:44;;;;;;;3.08;1.25;;;21.40;99.90;;;;;;5088174;28;20199;-75
2022/03/29 11:43:55;;;;;;;5.80;1.00;;;21.30;99.90;;;;;;4938818;27;5321177;-72
2022/03/29 11:46:26;;;;;;;4.28;0.90;;;21.30;99.90;;;;;;5119331;27;20700;-73
2022/03/29 11:48:59;;;;;;;4.95;1.00;;;21.30;99.90;;;;;;5124039;27;20306;-72
2022/03/29 11:51:30;;;;;;;4.10;0.85;;;21.30;99.90;;;;;;5127683;27;20194;-73
2022/03/29 11:54:01;;;;;;;3.15;0.95;;;21.30;99.90;;;;;;5130921;27;20728;-73
2022/03/29 11:56:36;;;;;;;3.75;0.90;;;21.30;99.90;;;;;;5127815;27;20231;-73
2022/03/29 11:59:16;;;;;;;2.88;0.90;;;21.20;99.90;;;;;;5124055;27;20272;-73
2022/03/29 12:01:47;;;;;;;3.75;1.10;;;21.20;99.90;;;;;;5126193;27;20186;-74
2022/03/29 12:04:18;;;;;;;3.85;1.10;;;21.20;99.90;;;;;;5121498;27;20213;-74
2022/03/29 12:06:54;;;;;;;4.85;0.95;;;21.10;99.90;;;;;;5119601;27;20210;-75
2022/03/29 12:09:31;;;;;;;4.03;1.10;;;21.10;99.90;;;;;;5121893;27;20214;-73
2022/03/29 12:12:03;;;;;;;4.30;1.15;;;21.10;99.90;;;;;;5122728;27;20292;-74
2022/03/29 12:14:36;;;;;;;4.80;1.08;;;21.10;99.90;;;;;;5122572;27;20363;-74
2022/03/29 12:17:08;;;;;;;5.70;1.00;;;21.10;99.90;;;;;;5117999;27;20566;-74
2022/03/29 12:19:41;;;;;;;3.42;1.23;;;21.10;99.90;;;;;;5116276;27;20841;-74
2022/03/29 12:22:14;;;;;;;3.78;1.02;;;21.10;99.90;;;;;;5116228;27;20263;-74
2022/03/29 12:24:46;;;;;;;4.00;1.08;;;21.20;99.90;;;;;;5114066;27;20233;-74
2022/03/29 12:27:19;;;;;;;4.30;0.95;;;21.10;99.90;;;;;;5112664;27;20237;-74
2022/03/29 12:29:55;;;;;;;4.65;1.27;;;21.20;99.90;;;;;;5115722;27;20220;-73
2022/03/29 12:32:26;;;;;;;4.75;1.15;;;21.20;99.90;;;;;;5117642;27;20214;-76
2022/03/29 12:35:01;;;;;;;4.18;1.15;;;21.10;99.90;;;;;;5117892;27;20252;-74
2022/03/29 12:37:34;;;;;;;5.97;1.23;;;21.10;99.90;;;;;;5116172;27;20751;-74
2022/03/29 12:40:12;;;;;;;5.65;1.20;;;21.10;99.90;;;;;;5115334;27;20700;-74
2022/03/29 12:42:43;;;;;;;2.85;1.00;;;21.10;99.90;;;;;;5118002;27;20267;-74
2022/03/29 12:45:15;;;;;;;3.35;0.93;;;21.10;99.90;;;;;;5113844;27;20234;-75
2022/03/29 12:47:47;;;;;;;4.28;1.20;;;21.00;99.90;;;;;;5117953;27;21941;-75
2022/03/29 12:50:17;;;;;;;5.55;1.10;;;21.00;99.90;;;;;;5103338;27;20291;-74
2022/03/29 12:52:48;;;;;;;3.97;1.23;;;21.00;99.90;;;;;;5107279;27;20206;-73
2022/03/29 12:55:20;;;;;;;5.72;1.30;;;21.00;99.90;;;;;;5105902;27;20241;-75
2022/03/29 12:58:00;;;;;;;5.07;1.10;;;21.00;99.90;;;;;;5106522;27;20211;-73
2022/03/29 13:00:39;;;;;;;3.67;0.90;;;21.00;99.90;;;;;;5102866;28;20689;-74
2022/03/29 13:03:14;;;;;;;3.40;1.08;;;21.00;99.90;;;;;;5108301;27;20191;-74
2022/03/29 13:05:49;;;;;;;2.22;0.90;;;21.00;99.90;;;;;;5105569;28;20207;-74
2022/03/29 13:08:24;;;;;;;4.43;1.10;;;21.00;99.90;;;;;;5108977;28;20241;-74
2022/03/29 13:10:54;;;;;;;4.80;1.10;;;21.00;99.90;;;;;;5106389;27;20218;-74
2022/03/29 13:13:28;;;;;;;5.05;1.00;;;21.00;99.90;;;;;;5106931;27;20229;-73
2022/03/29 13:16:05;;;;;;;6.43;0.88;;;21.00;99.90;;;;;;5105796;27;20532;-75
2022/03/29 13:18:37;;;;;;;3.30;0.80;;;20.90;99.90;;;;;;5109658;27;20259;-75
2022/03/29 13:21:16;;;;;;;4.53;1.30;;;21.00;99.90;;;;;;5104655;27;20702;-74
2022/03/29 13:23:48;;;;;;;5.55;1.38;;;21.00;99.90;;;;;;5102741;27;20214;-73
2022/03/29 13:26:21;;;;;;;3.72;0.90;;;20.90;99.90;;;;;;5101640;27;20217;-74
2022/03/29 13:28:53;;;;;;;6.30;1.60;;;21.00;99.90;;;;;;5107385;27;20263;-74